sensor_id;sensor_type;location;lat;lon;timestamp;temperature;humidity
21425;DHT22;10873;51.132;16.848;2024-02-23T00:01:29;24.40;52.80
21425;DHT22;10873;51.132;16.848;2024-02-23T00:03:55;24.40;52.80
21425;DHT22;10873;51.132;16.848;2024-02-23T00:06:22;24.30;52.80
21425;DHT22;10873;51.132;16.848;2024-02-23T00:08:54;24.40;53.50
21425;DHT22;10873;51.132;16.848;2024-02-23T00:11:20;24.40;52.90
21425;DHT22;10873;51.132;16.848;2024-02-23T00:13:46;24.30;52.80
21425;DHT22;10873;51.132;16.848;2024-02-23T00:16:12;24.30;52.80
21425;DHT22;10873;51.132;16.848;2024-02-23T00:18:39;24.30;52.90
21425;DHT22;10873;51.132;16.848;2024-02-23T00:21:05;24.30;52.90
21425;DHT22;10873;51.132;16.848;2024-02-23T00:23:31;24.30;52.90
21425;DHT22;10873;51.132;16.848;2024-02-23T00:25:58;24.30;52.90
21425;DHT22;10873;51.132;16.848;2024-02-23T00:28:24;24.30;53.00
21425;DHT22;10873;51.132;16.848;2024-02-23T00:30:50;24.30;53.00
21425;DHT22;10873;51.132;16.848;2024-02-23T00:33:16;24.30;53.00
21425;DHT22;10873;51.132;16.848;2024-02-23T00:35:42;24.30;53.00
21425;DHT22;10873;51.132;16.848;2024-02-23T00:38:08;24.30;53.00
21425;DHT22;10873;51.132;16.848;2024-02-23T00:40:34;24.30;53.00
21425;DHT22;10873;51.132;16.848;2024-02-23T00:43:01;24.30;53.10
21425;DHT22;10873;51.132;16.848;2024-02-23T00:45:29;24.30;53.10
21425;DHT22;10873;51.132;16.848;2024-02-23T00:47:55;24.30;53.10
21425;DHT22;10873;51.132;16.848;2024-02-23T00:50:22;24.30;53.10
21425;DHT22;10873;51.132;16.848;2024-02-23T00:52:49;24.20;53.10
21425;DHT22;10873;51.132;16.848;2024-02-23T00:55:16;24.30;53.20
21425;DHT22;10873;51.132;16.848;2024-02-23T00:57:43;24.30;53.20
21425;DHT22;10873;51.132;16.848;2024-02-23T01:00:10;24.30;53.20
21425;DHT22;10873;51.132;16.848;2024-02-23T01:02:37;24.30;53.20
21425;DHT22;10873;51.132;16.848;2024-02-23T01:05:04;24.30;53.30
21425;DHT22;10873;51.132;16.848;2024-02-23T01:07:30;24.20;53.20
21425;DHT22;10873;51.132;16.848;2024-02-23T01:09:56;24.20;53.20
21425;DHT22;10873;51.132;16.848;2024-02-23T01:12:24;24.30;53.20
21425;DHT22;10873;51.132;16.848;2024-02-23T01:14:50;24.30;53.20
21425;DHT22;10873;51.132;16.848;2024-02-23T01:17:17;24.30;53.20
21425;DHT22;10873;51.132;16.848;2024-02-23T01:19:43;24.30;53.20
21425;DHT22;10873;51.132;16.848;2024-02-23T01:22:10;24.30;53.20
21425;DHT22;10873;51.132;16.848;2024-02-23T01:24:37;24.20;53.20
21425;DHT22;10873;51.132;16.848;2024-02-23T01:27:03;24.20;53.20
21425;DHT22;10873;51.132;16.848;2024-02-23T01:29:29;24.20;53.30
21425;DHT22;10873;51.132;16.848;2024-02-23T01:31:55;24.20;53.30
21425;DHT22;10873;51.132;16.848;2024-02-23T01:34:22;24.20;53.30
21425;DHT22;10873;51.132;16.848;2024-02-23T01:36:48;24.20;53.30
21425;DHT22;10873;51.132;16.848;2024-02-23T01:39:14;24.20;53.30
21425;DHT22;10873;51.132;16.848;2024-02-23T01:41:40;24.20;53.20
21425;DHT22;10873;51.132;16.848;2024-02-23T01:44:08;24.20;53.20
21425;DHT22;10873;51.132;16.848;2024-02-23T01:46:34;24.20;53.20
21425;DHT22;10873;51.132;16.848;2024-02-23T01:49:00;24.20;53.20
21425;DHT22;10873;51.132;16.848;2024-02-23T01:51:27;24.20;53.20
21425;DHT22;10873;51.132;16.848;2024-02-23T01:53:53;24.20;53.20
21425;DHT22;10873;51.132;16.848;2024-02-23T01:56:20;24.20;53.20
21425;DHT22;10873;51.132;16.848;2024-02-23T01:58:46;24.20;53.20
21425;DHT22;10873;51.132;16.848;2024-02-23T02:01:12;24.20;53.30
21425;DHT22;10873;51.132;16.848;2024-02-23T02:03:39;24.20;53.30
21425;DHT22;10873;51.132;16.848;2024-02-23T02:06:05;24.20;53.30
21425;DHT22;10873;51.132;16.848;2024-02-23T02:08:33;24.20;53.30
21425;DHT22;10873;51.132;16.848;2024-02-23T02:11:00;24.20;53.30
21425;DHT22;10873;51.132;16.848;2024-02-23T02:13:28;24.20;53.20
21425;DHT22;10873;51.132;16.848;2024-02-23T02:15:54;24.20;53.30
21425;DHT22;10873;51.132;16.848;2024-02-23T02:18:20;24.20;53.30
21425;DHT22;10873;51.132;16.848;2024-02-23T02:20:51;24.20;53.30
21425;DHT22;10873;51.132;16.848;2024-02-23T02:23:18;24.20;53.30
21425;DHT22;10873;51.132;16.848;2024-02-23T02:25:45;24.20;53.30
21425;DHT22;10873;51.132;16.848;2024-02-23T02:28:11;24.20;53.30
21425;DHT22;10873;51.132;16.848;2024-02-23T02:30:37;24.20;53.30
21425;DHT22;10873;51.132;16.848;2024-02-23T02:33:03;24.20;53.30
21425;DHT22;10873;51.132;16.848;2024-02-23T02:35:30;24.20;53.30
21425;DHT22;10873;51.132;16.848;2024-02-23T02:37:55;24.20;53.30
21425;DHT22;10873;51.132;16.848;2024-02-23T02:40:22;24.20;53.30
21425;DHT22;10873;51.132;16.848;2024-02-23T02:42:48;24.20;53.30
21425;DHT22;10873;51.132;16.848;2024-02-23T02:45:14;24.20;53.30
21425;DHT22;10873;51.132;16.848;2024-02-23T02:47:40;24.20;53.30
21425;DHT22;10873;51.132;16.848;2024-02-23T02:50:08;24.20;53.40
21425;DHT22;10873;51.132;16.848;2024-02-23T02:52:34;24.20;53.30
21425;DHT22;10873;51.132;16.848;2024-02-23T02:55:01;24.20;53.30
21425;DHT22;10873;51.132;16.848;2024-02-23T02:57:27;24.20;53.30
21425;DHT22;10873;51.132;16.848;2024-02-23T02:59:53;24.20;53.30
21425;DHT22;10873;51.132;16.848;2024-02-23T03:02:20;24.20;53.40
21425;DHT22;10873;51.132;16.848;2024-02-23T03:04:49;24.20;53.30
21425;DHT22;10873;51.132;16.848;2024-02-23T03:07:16;24.20;53.30
21425;DHT22;10873;51.132;16.848;2024-02-23T03:09:42;24.30;53.30
21425;DHT22;10873;51.132;16.848;2024-02-23T03:12:10;24.30;53.30
21425;DHT22;10873;51.132;16.848;2024-02-23T03:14:36;24.30;53.30
21425;DHT22;10873;51.132;16.848;2024-02-23T03:17:07;24.20;53.20
21425;DHT22;10873;51.132;16.848;2024-02-23T03:19:33;24.30;53.30
21425;DHT22;10873;51.132;16.848;2024-02-23T03:21:59;24.30;53.30
21425;DHT22;10873;51.132;16.848;2024-02-23T03:24:25;24.20;53.20
21425;DHT22;10873;51.132;16.848;2024-02-23T03:26:51;24.20;53.20
21425;DHT22;10873;51.132;16.848;2024-02-23T03:29:18;24.20;53.30
21425;DHT22;10873;51.132;16.848;2024-02-23T03:31:43;24.20;53.30
21425;DHT22;10873;51.132;16.848;2024-02-23T03:34:10;24.20;53.30
21425;DHT22;10873;51.132;16.848;2024-02-23T03:36:36;24.20;53.40
21425;DHT22;10873;51.132;16.848;2024-02-23T03:39:03;24.20;53.40
21425;DHT22;10873;51.132;16.848;2024-02-23T03:41:29;24.30;53.40
21425;DHT22;10873;51.132;16.848;2024-02-23T03:43:55;24.20;53.40
21425;DHT22;10873;51.132;16.848;2024-02-23T03:46:21;24.30;53.40
21425;DHT22;10873;51.132;16.848;2024-02-23T03:48:47;24.20;53.40
21425;DHT22;10873;51.132;16.848;2024-02-23T03:51:14;24.20;53.30
21425;DHT22;10873;51.132;16.848;2024-02-23T03:53:41;24.20;53.30
21425;DHT22;10873;51.132;16.848;2024-02-23T03:56:07;24.20;53.40
21425;DHT22;10873;51.132;16.848;2024-02-23T03:58:34;24.20;53.40
21425;DHT22;10873;51.132;16.848;2024-02-23T04:01:00;24.20;53.40
21425;DHT22;10873;51.132;16.848;2024-02-23T04:03:26;24.20;53.50
21425;DHT22;10873;51.132;16.848;2024-02-23T04:05:52;24.20;53.40
21425;DHT22;10873;51.132;16.848;2024-02-23T04:08:19;24.20;53.40
21425;DHT22;10873;51.132;16.848;2024-02-23T04:10:45;24.20;53.40
21425;DHT22;10873;51.132;16.848;2024-02-23T04:13:11;24.20;53.50
21425;DHT22;10873;51.132;16.848;2024-02-23T04:15:39;24.20;53.40
21425;DHT22;10873;51.132;16.848;2024-02-23T04:18:05;24.30;53.30
21425;DHT22;10873;51.132;16.848;2024-02-23T04:20:31;24.30;53.30
21425;DHT22;10873;51.132;16.848;2024-02-23T04:22:58;24.30;53.20
21425;DHT22;10873;51.132;16.848;2024-02-23T04:25:25;24.30;53.20
21425;DHT22;10873;51.132;16.848;2024-02-23T04:27:51;24.30;53.20
21425;DHT22;10873;51.132;16.848;2024-02-23T04:30:17;24.30;53.20
21425;DHT22;10873;51.132;16.848;2024-02-23T04:32:44;24.30;53.20
21425;DHT22;10873;51.132;16.848;2024-02-23T04:35:10;24.30;53.20
21425;DHT22;10873;51.132;16.848;2024-02-23T04:37:36;24.30;53.20
21425;DHT22;10873;51.132;16.848;2024-02-23T04:40:03;24.30;53.20
21425;DHT22;10873;51.132;16.848;2024-02-23T04:42:32;24.30;53.10
21425;DHT22;10873;51.132;16.848;2024-02-23T04:44:58;24.30;53.10
21425;DHT22;10873;51.132;16.848;2024-02-23T04:47:24;24.30;53.10
21425;DHT22;10873;51.132;16.848;2024-02-23T04:49:50;24.30;53.10
21425;DHT22;10873;51.132;16.848;2024-02-23T04:52:17;24.30;53.10
21425;DHT22;10873;51.132;16.848;2024-02-23T04:54:43;24.30;53.10
21425;DHT22;10873;51.132;16.848;2024-02-23T04:57:09;24.30;53.00
21425;DHT22;10873;51.132;16.848;2024-02-23T04:59:35;24.30;53.70
21425;DHT22;10873;51.132;16.848;2024-02-23T05:02:02;24.30;53.00
21425;DHT22;10873;51.132;16.848;2024-02-23T05:04:28;24.30;52.90
21425;DHT22;10873;51.132;16.848;2024-02-23T05:06:54;24.40;53.00
21425;DHT22;10873;51.132;16.848;2024-02-23T05:09:20;24.40;53.00
21425;DHT22;10873;51.132;16.848;2024-02-23T05:11:46;24.40;52.90
21425;DHT22;10873;51.132;16.848;2024-02-23T05:14:13;24.40;52.90
21425;DHT22;10873;51.132;16.848;2024-02-23T05:16:40;24.40;52.90
21425;DHT22;10873;51.132;16.848;2024-02-23T05:19:06;24.40;52.90
21425;DHT22;10873;51.132;16.848;2024-02-23T05:21:32;24.30;52.90
21425;DHT22;10873;51.132;16.848;2024-02-23T05:23:59;24.40;53.00
21425;DHT22;10873;51.132;16.848;2024-02-23T05:26:25;24.40;53.00
21425;DHT22;10873;51.132;16.848;2024-02-23T05:28:51;24.30;52.90
21425;DHT22;10873;51.132;16.848;2024-02-23T05:31:18;24.30;52.90
21425;DHT22;10873;51.132;16.848;2024-02-23T05:33:45;24.30;52.90
21425;DHT22;10873;51.132;16.848;2024-02-23T05:36:11;24.30;52.90
21425;DHT22;10873;51.132;16.848;2024-02-23T05:38:37;24.40;53.00
21425;DHT22;10873;51.132;16.848;2024-02-23T05:41:03;24.40;53.00
21425;DHT22;10873;51.132;16.848;2024-02-23T05:43:30;24.40;52.90
21425;DHT22;10873;51.132;16.848;2024-02-23T05:45:57;24.40;52.90
21425;DHT22;10873;51.132;16.848;2024-02-23T05:48:24;24.40;52.90
21425;DHT22;10873;51.132;16.848;2024-02-23T05:50:51;24.50;53.00
21425;DHT22;10873;51.132;16.848;2024-02-23T05:53:17;24.50;53.00
21425;DHT22;10873;51.132;16.848;2024-02-23T05:55:43;24.50;53.00
21425;DHT22;10873;51.132;16.848;2024-02-23T05:58:09;24.50;53.00
21425;DHT22;10873;51.132;16.848;2024-02-23T06:00:35;24.50;53.20
21425;DHT22;10873;51.132;16.848;2024-02-23T06:03:01;24.50;53.20
21425;DHT22;10873;51.132;16.848;2024-02-23T06:05:27;24.50;53.30
21425;DHT22;10873;51.132;16.848;2024-02-23T06:07:54;24.50;53.60
21425;DHT22;10873;51.132;16.848;2024-02-23T06:10:20;24.50;54.20
21425;DHT22;10873;51.132;16.848;2024-02-23T06:12:46;24.50;54.70
21425;DHT22;10873;51.132;16.848;2024-02-23T06:15:13;24.40;55.60
21425;DHT22;10873;51.132;16.848;2024-02-23T06:17:39;24.40;56.10
21425;DHT22;10873;51.132;16.848;2024-02-23T06:20:07;24.40;56.10
21425;DHT22;10873;51.132;16.848;2024-02-23T06:22:34;24.40;56.10
21425;DHT22;10873;51.132;16.848;2024-02-23T06:25:01;24.40;56.10
21425;DHT22;10873;51.132;16.848;2024-02-23T06:27:27;24.30;56.10
21425;DHT22;10873;51.132;16.848;2024-02-23T06:29:54;24.30;56.10
21425;DHT22;10873;51.132;16.848;2024-02-23T06:32:21;24.30;56.00
21425;DHT22;10873;51.132;16.848;2024-02-23T06:34:47;24.30;56.00
21425;DHT22;10873;51.132;16.848;2024-02-23T06:37:13;24.30;56.00
21425;DHT22;10873;51.132;16.848;2024-02-23T06:39:39;24.30;56.00
21425;DHT22;10873;51.132;16.848;2024-02-23T06:42:06;24.30;55.90
21425;DHT22;10873;51.132;16.848;2024-02-23T06:44:33;24.30;55.70
21425;DHT22;10873;51.132;16.848;2024-02-23T06:46:59;24.30;55.70
21425;DHT22;10873;51.132;16.848;2024-02-23T06:49:25;24.30;55.70
21425;DHT22;10873;51.132;16.848;2024-02-23T06:51:51;24.30;55.70
21425;DHT22;10873;51.132;16.848;2024-02-23T06:54:17;24.30;55.60
21425;DHT22;10873;51.132;16.848;2024-02-23T06:56:43;24.30;55.50
21425;DHT22;10873;51.132;16.848;2024-02-23T06:59:10;24.30;55.40
21425;DHT22;10873;51.132;16.848;2024-02-23T07:01:36;24.30;55.30
21425;DHT22;10873;51.132;16.848;2024-02-23T07:04:13;24.30;55.30
21425;DHT22;10873;51.132;16.848;2024-02-23T07:06:39;24.30;55.30
21425;DHT22;10873;51.132;16.848;2024-02-23T07:09:06;24.30;55.30
21425;DHT22;10873;51.132;16.848;2024-02-23T07:11:32;24.30;55.40
21425;DHT22;10873;51.132;16.848;2024-02-23T07:13:58;24.20;55.40
21425;DHT22;10873;51.132;16.848;2024-02-23T07:16:25;24.20;55.40
21425;DHT22;10873;51.132;16.848;2024-02-23T07:18:51;24.20;56.00
21425;DHT22;10873;51.132;16.848;2024-02-23T07:21:17;24.20;55.20
21425;DHT22;10873;51.132;16.848;2024-02-23T07:23:44;24.20;55.00
21425;DHT22;10873;51.132;16.848;2024-02-23T07:26:09;24.20;54.80
21425;DHT22;10873;51.132;16.848;2024-02-23T07:28:36;24.20;54.70
21425;DHT22;10873;51.132;16.848;2024-02-23T07:31:02;24.20;54.60
21425;DHT22;10873;51.132;16.848;2024-02-23T07:33:29;24.20;54.50
21425;DHT22;10873;51.132;16.848;2024-02-23T07:35:55;24.20;54.40
21425;DHT22;10873;51.132;16.848;2024-02-23T07:38:21;24.20;54.40
21425;DHT22;10873;51.132;16.848;2024-02-23T07:40:47;24.20;54.20
21425;DHT22;10873;51.132;16.848;2024-02-23T07:43:13;24.20;54.30
21425;DHT22;10873;51.132;16.848;2024-02-23T07:45:39;24.20;54.20
21425;DHT22;10873;51.132;16.848;2024-02-23T07:48:06;24.20;54.20
21425;DHT22;10873;51.132;16.848;2024-02-23T07:50:33;24.20;54.10
21425;DHT22;10873;51.132;16.848;2024-02-23T07:52:59;24.20;54.10
21425;DHT22;10873;51.132;16.848;2024-02-23T07:55:25;24.20;54.00
21425;DHT22;10873;51.132;16.848;2024-02-23T07:57:51;24.20;54.00
21425;DHT22;10873;51.132;16.848;2024-02-23T08:00:18;24.20;54.00
21425;DHT22;10873;51.132;16.848;2024-02-23T08:02:44;24.20;54.00
21425;DHT22;10873;51.132;16.848;2024-02-23T08:05:11;24.20;54.00
21425;DHT22;10873;51.132;16.848;2024-02-23T08:07:38;24.20;54.10
21425;DHT22;10873;51.132;16.848;2024-02-23T08:10:04;24.20;54.10
21425;DHT22;10873;51.132;16.848;2024-02-23T08:12:31;24.20;54.00
21425;DHT22;10873;51.132;16.848;2024-02-23T08:14:57;24.20;54.00
21425;DHT22;10873;51.132;16.848;2024-02-23T08:17:23;24.10;54.60
21425;DHT22;10873;51.132;16.848;2024-02-23T08:19:49;24.10;54.00
21425;DHT22;10873;51.132;16.848;2024-02-23T08:22:15;24.10;53.90
21425;DHT22;10873;51.132;16.848;2024-02-23T08:24:42;24.10;54.10
21425;DHT22;10873;51.132;16.848;2024-02-23T08:27:08;24.10;54.10
21425;DHT22;10873;51.132;16.848;2024-02-23T08:29:37;24.10;54.00
21425;DHT22;10873;51.132;16.848;2024-02-23T08:32:03;24.10;53.70
21425;DHT22;10873;51.132;16.848;2024-02-23T08:34:29;24.10;53.40
21425;DHT22;10873;51.132;16.848;2024-02-23T08:36:56;24.10;53.10
21425;DHT22;10873;51.132;16.848;2024-02-23T08:39:22;24.10;53.20
21425;DHT22;10873;51.132;16.848;2024-02-23T08:41:49;24.10;52.20
21425;DHT22;10873;51.132;16.848;2024-02-23T08:44:17;24.10;51.80
21425;DHT22;10873;51.132;16.848;2024-02-23T08:46:43;24.10;51.60
21425;DHT22;10873;51.132;16.848;2024-02-23T08:49:09;24.10;51.30
21425;DHT22;10873;51.132;16.848;2024-02-23T08:51:35;24.10;51.20
21425;DHT22;10873;51.132;16.848;2024-02-23T08:54:02;24.10;51.00
21425;DHT22;10873;51.132;16.848;2024-02-23T08:56:30;24.10;50.90
21425;DHT22;10873;51.132;16.848;2024-02-23T08:58:58;24.10;50.80
21425;DHT22;10873;51.132;16.848;2024-02-23T09:01:24;24.10;50.70
21425;DHT22;10873;51.132;16.848;2024-02-23T09:03:50;24.10;50.60
21425;DHT22;10873;51.132;16.848;2024-02-23T09:06:16;24.10;50.50
21425;DHT22;10873;51.132;16.848;2024-02-23T09:08:42;24.10;50.40
21425;DHT22;10873;51.132;16.848;2024-02-23T09:11:09;24.10;50.30
21425;DHT22;10873;51.132;16.848;2024-02-23T09:13:37;24.10;50.30
21425;DHT22;10873;51.132;16.848;2024-02-23T09:16:04;24.10;50.20
21425;DHT22;10873;51.132;16.848;2024-02-23T09:18:30;24.10;50.20
21425;DHT22;10873;51.132;16.848;2024-02-23T09:20:56;24.00;50.10
21425;DHT22;10873;51.132;16.848;2024-02-23T09:23:22;24.00;50.10
21425;DHT22;10873;51.132;16.848;2024-02-23T09:25:48;24.00;50.00
21425;DHT22;10873;51.132;16.848;2024-02-23T09:28:14;24.00;49.90
21425;DHT22;10873;51.132;16.848;2024-02-23T09:30:41;24.00;49.90
21425;DHT22;10873;51.132;16.848;2024-02-23T09:33:07;24.00;49.90
21425;DHT22;10873;51.132;16.848;2024-02-23T09:35:34;24.00;49.90
21425;DHT22;10873;51.132;16.848;2024-02-23T09:38:00;24.10;49.90
21425;DHT22;10873;51.132;16.848;2024-02-23T09:40:26;24.10;49.80
21425;DHT22;10873;51.132;16.848;2024-02-23T09:42:56;24.10;49.70
21425;DHT22;10873;51.132;16.848;2024-02-23T09:45:25;24.10;49.70
21425;DHT22;10873;51.132;16.848;2024-02-23T09:47:57;24.10;49.70
21425;DHT22;10873;51.132;16.848;2024-02-23T09:50:24;24.00;49.60
21425;DHT22;10873;51.132;16.848;2024-02-23T09:52:51;24.10;49.60
21425;DHT22;10873;51.132;16.848;2024-02-23T09:55:17;24.00;49.50
21425;DHT22;10873;51.132;16.848;2024-02-23T09:57:44;24.00;49.50
21425;DHT22;10873;51.132;16.848;2024-02-23T10:00:13;24.00;49.50
21425;DHT22;10873;51.132;16.848;2024-02-23T10:02:41;24.00;49.50
21425;DHT22;10873;51.132;16.848;2024-02-23T10:05:08;24.00;49.50
21425;DHT22;10873;51.132;16.848;2024-02-23T10:07:36;24.00;49.50
21425;DHT22;10873;51.132;16.848;2024-02-23T10:10:06;24.00;49.50
21425;DHT22;10873;51.132;16.848;2024-02-23T10:12:33;24.00;49.60
21425;DHT22;10873;51.132;16.848;2024-02-23T10:14:59;24.00;49.50
21425;DHT22;10873;51.132;16.848;2024-02-23T10:17:26;24.00;49.50
21425;DHT22;10873;51.132;16.848;2024-02-23T10:19:52;24.00;49.50
21425;DHT22;10873;51.132;16.848;2024-02-23T10:22:18;24.00;49.50
21425;DHT22;10873;51.132;16.848;2024-02-23T10:24:44;24.00;49.40
21425;DHT22;10873;51.132;16.848;2024-02-23T10:27:10;24.00;49.40
21425;DHT22;10873;51.132;16.848;2024-02-23T10:29:37;24.00;49.30
21425;DHT22;10873;51.132;16.848;2024-02-23T10:32:03;24.00;49.30
21425;DHT22;10873;51.132;16.848;2024-02-23T10:34:31;24.00;49.20
21425;DHT22;10873;51.132;16.848;2024-02-23T10:36:59;24.00;49.20
21425;DHT22;10873;51.132;16.848;2024-02-23T10:39:28;24.00;49.20
21425;DHT22;10873;51.132;16.848;2024-02-23T10:41:57;24.00;49.10
21425;DHT22;10873;51.132;16.848;2024-02-23T10:44:27;24.00;49.00
21425;DHT22;10873;51.132;16.848;2024-02-23T10:46:54;24.00;49.00
21425;DHT22;10873;51.132;16.848;2024-02-23T10:49:23;24.00;49.00
21425;DHT22;10873;51.132;16.848;2024-02-23T10:51:52;24.00;48.90
21425;DHT22;10873;51.132;16.848;2024-02-23T10:54:19;24.10;48.90
21425;DHT22;10873;51.132;16.848;2024-02-23T10:56:47;24.00;48.80
21425;DHT22;10873;51.132;16.848;2024-02-23T10:59:14;24.00;48.80
21425;DHT22;10873;51.132;16.848;2024-02-23T11:01:44;24.00;48.80
21425;DHT22;10873;51.132;16.848;2024-02-23T11:04:13;24.00;48.80
21425;DHT22;10873;51.132;16.848;2024-02-23T11:06:40;24.00;48.70
21425;DHT22;10873;51.132;16.848;2024-02-23T11:09:06;24.00;48.70
21425;DHT22;10873;51.132;16.848;2024-02-23T11:11:33;24.00;48.70
21425;DHT22;10873;51.132;16.848;2024-02-23T11:14:03;24.00;48.70
21425;DHT22;10873;51.132;16.848;2024-02-23T11:16:31;24.00;48.70
21425;DHT22;10873;51.132;16.848;2024-02-23T11:19:04;24.00;48.70
21425;DHT22;10873;51.132;16.848;2024-02-23T11:21:34;24.00;48.70
21425;DHT22;10873;51.132;16.848;2024-02-23T11:24:03;24.00;48.70
21425;DHT22;10873;51.132;16.848;2024-02-23T11:26:29;24.00;48.70
21425;DHT22;10873;51.132;16.848;2024-02-23T11:28:55;24.00;48.70
21425;DHT22;10873;51.132;16.848;2024-02-23T11:31:22;24.10;48.70
21425;DHT22;10873;51.132;16.848;2024-02-23T11:33:54;24.10;48.70
21425;DHT22;10873;51.132;16.848;2024-02-23T11:36:23;24.10;48.60
21425;DHT22;10873;51.132;16.848;2024-02-23T11:38:52;24.10;48.60
21425;DHT22;10873;51.132;16.848;2024-02-23T11:41:20;24.10;48.60
21425;DHT22;10873;51.132;16.848;2024-02-23T11:43:46;24.10;49.20
21425;DHT22;10873;51.132;16.848;2024-02-23T11:46:14;24.10;48.60
21425;DHT22;10873;51.132;16.848;2024-02-23T11:48:41;24.10;48.70
21425;DHT22;10873;51.132;16.848;2024-02-23T11:51:07;24.10;48.70
21425;DHT22;10873;51.132;16.848;2024-02-23T11:53:35;24.10;48.70
21425;DHT22;10873;51.132;16.848;2024-02-23T11:56:02;24.10;48.70
21425;DHT22;10873;51.132;16.848;2024-02-23T11:58:29;24.10;48.70
21425;DHT22;10873;51.132;16.848;2024-02-23T12:00:55;24.10;48.70
21425;DHT22;10873;51.132;16.848;2024-02-23T12:03:22;24.00;48.70
21425;DHT22;10873;51.132;16.848;2024-02-23T12:05:51;24.00;48.60
21425;DHT22;10873;51.132;16.848;2024-02-23T12:08:18;24.00;48.60
21425;DHT22;10873;51.132;16.848;2024-02-23T12:10:45;24.00;48.60
21425;DHT22;10873;51.132;16.848;2024-02-23T12:13:11;24.00;48.50
21425;DHT22;10873;51.132;16.848;2024-02-23T12:15:37;24.00;48.50
21425;DHT22;10873;51.132;16.848;2024-02-23T12:18:05;24.00;48.50
21425;DHT22;10873;51.132;16.848;2024-02-23T12:20:33;24.00;48.60
21425;DHT22;10873;51.132;16.848;2024-02-23T12:23:01;24.00;48.50
21425;DHT22;10873;51.132;16.848;2024-02-23T12:25:27;24.00;48.40
21425;DHT22;10873;51.132;16.848;2024-02-23T12:27:54;24.00;48.40
21425;DHT22;10873;51.132;16.848;2024-02-23T12:30:21;24.00;49.10
21425;DHT22;10873;51.132;16.848;2024-02-23T12:32:47;24.00;48.40
21425;DHT22;10873;51.132;16.848;2024-02-23T12:35:14;24.00;48.40
21425;DHT22;10873;51.132;16.848;2024-02-23T12:37:41;24.00;48.40
21425;DHT22;10873;51.132;16.848;2024-02-23T12:40:09;23.90;48.30
21425;DHT22;10873;51.132;16.848;2024-02-23T12:42:36;23.90;48.30
21425;DHT22;10873;51.132;16.848;2024-02-23T12:45:03;23.90;48.40
21425;DHT22;10873;51.132;16.848;2024-02-23T12:47:29;23.90;48.30
21425;DHT22;10873;51.132;16.848;2024-02-23T12:49:55;23.90;48.30
21425;DHT22;10873;51.132;16.848;2024-02-23T12:52:21;23.90;48.30
21425;DHT22;10873;51.132;16.848;2024-02-23T12:54:47;24.00;48.60
21425;DHT22;10873;51.132;16.848;2024-02-23T12:57:13;24.00;49.60
21425;DHT22;10873;51.132;16.848;2024-02-23T12:59:40;24.00;49.30
21425;DHT22;10873;51.132;16.848;2024-02-23T13:02:08;24.00;49.50
21425;DHT22;10873;51.132;16.848;2024-02-23T13:04:34;24.00;49.20
21425;DHT22;10873;51.132;16.848;2024-02-23T13:07:01;24.00;48.90
21425;DHT22;10873;51.132;16.848;2024-02-23T13:09:27;24.00;48.40
21425;DHT22;10873;51.132;16.848;2024-02-23T13:11:53;24.10;48.00
21425;DHT22;10873;51.132;16.848;2024-02-23T13:14:19;24.10;47.70
21425;DHT22;10873;51.132;16.848;2024-02-23T13:16:46;24.00;47.50
21425;DHT22;10873;51.132;16.848;2024-02-23T13:19:12;24.00;47.40
21425;DHT22;10873;51.132;16.848;2024-02-23T13:21:38;24.00;47.40
21425;DHT22;10873;51.132;16.848;2024-02-23T13:24:05;24.00;47.30
21425;DHT22;10873;51.132;16.848;2024-02-23T13:26:32;24.00;47.30
21425;DHT22;10873;51.132;16.848;2024-02-23T13:28:58;24.00;47.30
21425;DHT22;10873;51.132;16.848;2024-02-23T13:31:24;24.00;47.40
21425;DHT22;10873;51.132;16.848;2024-02-23T13:33:51;24.00;47.50
21425;DHT22;10873;51.132;16.848;2024-02-23T13:36:17;24.00;47.60
21425;DHT22;10873;51.132;16.848;2024-02-23T13:38:43;24.00;47.70
21425;DHT22;10873;51.132;16.848;2024-02-23T13:41:09;24.00;47.70
21425;DHT22;10873;51.132;16.848;2024-02-23T13:43:35;24.00;47.70
21425;DHT22;10873;51.132;16.848;2024-02-23T13:46:02;24.00;47.80
21425;DHT22;10873;51.132;16.848;2024-02-23T13:48:29;24.00;47.80
21425;DHT22;10873;51.132;16.848;2024-02-23T13:50:57;24.00;47.90
21425;DHT22;10873;51.132;16.848;2024-02-23T13:53:23;24.00;47.90
21425;DHT22;10873;51.132;16.848;2024-02-23T13:55:49;24.00;48.00
21425;DHT22;10873;51.132;16.848;2024-02-23T13:58:15;24.00;48.10
21425;DHT22;10873;51.132;16.848;2024-02-23T14:00:43;24.00;48.10
21425;DHT22;10873;51.132;16.848;2024-02-23T14:03:11;24.00;48.20
21425;DHT22;10873;51.132;16.848;2024-02-23T14:05:42;24.00;48.20
21425;DHT22;10873;51.132;16.848;2024-02-23T14:08:11;24.00;48.20
21425;DHT22;10873;51.132;16.848;2024-02-23T14:10:37;24.00;48.20
21425;DHT22;10873;51.132;16.848;2024-02-23T14:13:04;23.90;48.20
21425;DHT22;10873;51.132;16.848;2024-02-23T14:15:30;23.90;48.20
21425;DHT22;10873;51.132;16.848;2024-02-23T14:17:56;23.90;48.30
21425;DHT22;10873;51.132;16.848;2024-02-23T14:20:22;24.00;48.50
21425;DHT22;10873;51.132;16.848;2024-02-23T14:22:48;24.00;48.60
21425;DHT22;10873;51.132;16.848;2024-02-23T14:25:17;24.00;48.70
21425;DHT22;10873;51.132;16.848;2024-02-23T14:27:42;24.00;48.70
21425;DHT22;10873;51.132;16.848;2024-02-23T14:30:09;24.00;48.70
21425;DHT22;10873;51.132;16.848;2024-02-23T14:32:35;24.00;48.70
21425;DHT22;10873;51.132;16.848;2024-02-23T14:35:02;24.00;48.70
21425;DHT22;10873;51.132;16.848;2024-02-23T14:37:29;24.00;48.70
21425;DHT22;10873;51.132;16.848;2024-02-23T14:39:55;24.00;48.70
21425;DHT22;10873;51.132;16.848;2024-02-23T14:42:22;24.00;48.70
21425;DHT22;10873;51.132;16.848;2024-02-23T14:44:48;24.00;48.70
21425;DHT22;10873;51.132;16.848;2024-02-23T14:47:16;24.00;48.90
21425;DHT22;10873;51.132;16.848;2024-02-23T14:49:42;24.00;49.20
21425;DHT22;10873;51.132;16.848;2024-02-23T14:52:08;24.00;49.60
21425;DHT22;10873;51.132;16.848;2024-02-23T14:54:34;24.00;49.70
21425;DHT22;10873;51.132;16.848;2024-02-23T14:57:00;24.00;49.80
21425;DHT22;10873;51.132;16.848;2024-02-23T14:59:27;24.10;49.90
21425;DHT22;10873;51.132;16.848;2024-02-23T15:01:53;24.10;50.10
21425;DHT22;10873;51.132;16.848;2024-02-23T15:04:19;24.10;50.30
21425;DHT22;10873;51.132;16.848;2024-02-23T15:06:45;24.10;50.50
21425;DHT22;10873;51.132;16.848;2024-02-23T15:09:11;24.10;50.70
21425;DHT22;10873;51.132;16.848;2024-02-23T15:11:37;24.10;50.80